Time;durP1;ratioP1;P1;durP2;ratioP2;P2;SDS_P1;SDS_P2;PMS_P1;PMS_P2;Temp;Humidity;BMP_temperature;BMP_pressure;BME280_temperature;BME280_humidity;BME280_pressure;Samples;Min_cycle;Max_cycle;Signal;HPM_P1;HPM_P2
2023/07/21 00:01:12;;;;;;;9.07;8.27;;;;;;;;;;5006724;28;20304;-69
2023/07/21 00:03:48;;;;;;;10.00;8.52;;;;;;;;;;5012033;28;20222;-69
2023/07/21 00:06:17;;;;;;;8.13;7.40;;;;;;;;;;5013075;28;20194;-69
2023/07/21 00:08:43;;;;;;;8.45;7.60;;;;;;;;;;5013048;28;20277;-69
2023/07/21 00:11:09;;;;;;;9.50;8.60;;;;;;;;;;5004576;28;20219;-69
2023/07/21 00:13:35;;;;;;;9.32;8.23;;;;;;;;;;4992480;28;20720;-69
2023/07/21 00:16:04;;;;;;;9.10;8.27;;;;;;;;;;5012637;28;20195;-69
2023/07/21 00:18:30;;;;;;;11.05;8.48;;;;;;;;;;5006874;28;20693;-69
2023/07/21 00:20:55;;;;;;;10.57;7.88;;;;;;;;;;5005533;28;20600;-69
2023/07/21 00:23:22;;;;;;;10.57;8.85;;;;;;;;;;5009629;28;20190;-69
2023/07/21 00:25:48;;;;;;;10.52;9.52;;;;;;;;;;5011541;28;20256;-70
2023/07/21 00:28:14;;;;;;;11.82;10.05;;;;;;;;;;5013178;28;20234;-68
2023/07/21 00:30:40;;;;;;;10.38;9.10;;;;;;;;;;5012366;28;20270;-68
2023/07/21 00:33:05;;;;;;;10.90;9.80;;;;;;;;;;5007677;28;20199;-69
2023/07/21 00:35:31;;;;;;;11.68;9.93;;;;;;;;;;5012622;28;20191;-68
2023/07/21 00:38:00;;;;;;;11.32;9.77;;;;;;;;;;5008368;28;20205;-69
2023/07/21 00:40:26;;;;;;;10.95;9.82;;;;;;;;;;5010496;28;20597;-69
2023/07/21 00:42:51;;;;;;;11.05;9.40;;;;;;;;;;5012573;28;20194;-69
2023/07/21 00:45:17;;;;;;;11.88;9.20;;;;;;;;;;5009946;28;20191;-69
2023/07/21 00:47:42;;;;;;;11.43;10.30;;;;;;;;;;4985992;28;20176;-69
2023/07/21 00:50:08;;;;;;;10.90;9.93;;;;;;;;;;5005924;28;20198;-69
2023/07/21 00:52:35;;;;;;;11.48;10.00;;;;;;;;;;5010678;28;20621;-69
2023/07/21 00:55:01;;;;;;;13.55;10.38;;;;;;;;;;5002425;28;20602;-69
2023/07/21 00:57:26;;;;;;;12.40;11.15;;;;;;;;;;5009654;28;20218;-69
2023/07/21 00:59:52;;;;;;;12.27;10.45;;;;;;;;;;4996987;28;20209;-68
2023/07/21 01:02:17;;;;;;;12.25;10.98;;;;;;;;;;5002395;28;20191;-69
2023/07/21 01:04:47;;;;;;;11.50;10.50;;;;;;;;;;5010902;28;20195;-69
2023/07/21 01:07:13;;;;;;;13.15;11.00;;;;;;;;;;5011553;28;20194;-68
2023/07/21 01:09:40;;;;;;;12.50;11.20;;;;;;;;;;5002476;28;20463;-70
2023/07/21 01:12:06;;;;;;;11.90;10.80;;;;;;;;;;5000781;28;20631;-70
2023/07/21 01:14:35;;;;;;;13.60;10.90;;;;;;;;;;5013478;28;20578;-70
2023/07/21 01:17:02;;;;;;;13.20;11.52;;;;;;;;;;5011645;28;20207;-69
2023/07/21 01:19:29;;;;;;;11.63;10.20;;;;;;;;;;5009453;28;20168;-69
2023/07/21 01:22:05;;;;;;;12.65;10.82;;;;;;;;;;4992356;28;20183;-69
2023/07/21 01:24:52;;;;;;;11.65;10.45;;;;;;;;;;5013240;28;20193;-69
2023/07/21 01:27:21;;;;;;;12.70;10.57;;;;;;;;;;5009601;28;20258;-69
2023/07/21 01:29:48;;;;;;;12.10;10.85;;;;;;;;;;5013288;28;20186;-69
2023/07/21 01:32:17;;;;;;;11.55;10.45;;;;;;;;;;5010721;28;20642;-68
2023/07/21 01:34:43;;;;;;;12.10;10.10;;;;;;;;;;5001808;28;20183;-68
2023/07/21 01:37:10;;;;;;;12.48;10.65;;;;;;;;;;5013933;28;20204;-70
2023/07/21 01:39:36;;;;;;;11.70;10.50;;;;;;;;;;5009592;28;20192;-68
2023/07/21 01:42:03;;;;;;;13.48;10.45;;;;;;;;;;5007672;28;20183;-70
2023/07/21 01:44:29;;;;;;;11.35;10.25;;;;;;;;;;5012789;28;20198;-69
2023/07/21 01:46:54;;;;;;;11.55;10.35;;;;;;;;;;4994936;28;20220;-68
2023/07/21 01:49:20;;;;;;;12.13;10.90;;;;;;;;;;5004551;28;20273;-68
2023/07/21 01:51:47;;;;;;;11.73;10.57;;;;;;;;;;5002207;28;20219;-69
2023/07/21 01:54:20;;;;;;;10.82;9.80;;;;;;;;;;5008310;28;20271;-69
2023/07/21 01:56:55;;;;;;;11.60;10.50;;;;;;;;;;4994363;28;20257;-70
2023/07/21 01:59:22;;;;;;;11.75;10.45;;;;;;;;;;4994864;28;20182;-68
2023/07/21 02:01:48;;;;;;;11.20;10.10;;;;;;;;;;4986754;28;20198;-69
2023/07/21 02:04:14;;;;;;;12.38;10.73;;;;;;;;;;5003936;28;20190;-69
2023/07/21 02:06:40;;;;;;;11.75;10.40;;;;;;;;;;5011620;28;20561;-69
2023/07/21 02:09:05;;;;;;;11.07;9.98;;;;;;;;;;5012991;28;20187;-69
2023/07/21 02:11:31;;;;;;;12.68;10.73;;;;;;;;;;5012478;28;20226;-69
2023/07/21 02:13:58;;;;;;;13.00;11.77;;;;;;;;;;4997417;28;20187;-69
2023/07/21 02:16:23;;;;;;;12.88;11.48;;;;;;;;;;5006200;28;20244;-69
2023/07/21 02:18:48;;;;;;;13.40;11.07;;;;;;;;;;5004457;28;20195;-69
2023/07/21 02:21:14;;;;;;;12.95;11.73;;;;;;;;;;4995755;28;20189;-68
2023/07/21 02:23:39;;;;;;;14.27;11.23;;;;;;;;;;5008915;28;20195;-69
2023/07/21 02:26:04;;;;;;;12.70;11.35;;;;;;;;;;5009890;28;20225;-69
2023/07/21 02:28:30;;;;;;;15.60;11.77;;;;;;;;;;5004385;28;20240;-69
2023/07/21 02:31:02;;;;;;;11.65;10.52;;;;;;;;;;5017500;28;20716;-69
2023/07/21 02:33:28;;;;;;;11.68;10.48;;;;;;;;;;5006861;28;20191;-70
2023/07/21 02:35:54;;;;;;;13.18;11.70;;;;;;;;;;5014153;28;22062;-70
2023/07/21 02:38:19;;;;;;;12.13;10.95;;;;;;;;;;5018611;28;20199;-69
2023/07/21 02:40:45;;;;;;;13.75;11.75;;;;;;;;;;5003107;28;20203;-69
2023/07/21 02:43:12;;;;;;;12.80;11.50;;;;;;;;;;5010373;28;20282;-69
2023/07/21 02:45:38;;;;;;;13.05;11.52;;;;;;;;;;5005505;28;20187;-70
2023/07/21 02:48:03;;;;;;;13.50;12.10;;;;;;;;;;5009501;28;20209;-69
2023/07/21 02:50:30;;;;;;;13.05;11.63;;;;;;;;;;5006370;28;20586;-69
2023/07/21 02:52:55;;;;;;;12.75;11.40;;;;;;;;;;5003193;28;20211;-69
2023/07/21 02:55:21;;;;;;;12.88;11.68;;;;;;;;;;5011517;28;20244;-68
2023/07/21 02:57:46;;;;;;;13.40;12.00;;;;;;;;;;5008782;28;20214;-68
2023/07/21 03:00:12;;;;;;;14.18;12.70;;;;;;;;;;5012848;28;20191;-69
2023/07/21 03:02:41;;;;;;;14.02;12.55;;;;;;;;;;5017526;28;20243;-69
2023/07/21 03:05:07;;;;;;;14.25;12.18;;;;;;;;;;5019887;28;20229;-71
2023/07/21 03:07:33;;;;;;;14.02;12.07;;;;;;;;;;4999715;28;20187;-69
2023/07/21 03:09:58;;;;;;;14.15;12.65;;;;;;;;;;5008501;28;20202;-69
2023/07/21 03:12:23;;;;;;;16.35;12.65;;;;;;;;;;5012977;28;20589;-70
2023/07/21 03:14:49;;;;;;;13.25;11.85;;;;;;;;;;4996259;28;20182;-69
2023/07/21 03:17:14;;;;;;;13.88;12.40;;;;;;;;;;5008710;28;20294;-70
2023/07/21 03:19:40;;;;;;;12.98;11.60;;;;;;;;;;5008052;28;20186;-70
2023/07/21 03:22:05;;;;;;;14.48;12.98;;;;;;;;;;4997759;28;20206;-70
2023/07/21 03:24:32;;;;;;;13.38;12.00;;;;;;;;;;5004120;28;20192;-69
2023/07/21 03:26:58;;;;;;;13.13;11.82;;;;;;;;;;4999790;28;20235;-70
2023/07/21 03:29:23;;;;;;;13.27;11.93;;;;;;;;;;5012067;28;20187;-69
2023/07/21 03:31:48;;;;;;;14.00;12.50;;;;;;;;;;5000267;28;20631;-69
2023/07/21 03:34:14;;;;;;;12.65;11.45;;;;;;;;;;5014340;28;20226;-69
2023/07/21 03:36:40;;;;;;;14.50;12.57;;;;;;;;;;5015677;28;20182;-69
2023/07/21 03:39:05;;;;;;;13.82;12.35;;;;;;;;;;5015376;28;20194;-69
2023/07/21 03:41:30;;;;;;;14.02;12.40;;;;;;;;;;5001419;28;20627;-69
2023/07/21 03:43:56;;;;;;;14.40;12.88;;;;;;;;;;5018749;28;20742;-69
2023/07/21 03:46:22;;;;;;;14.55;12.73;;;;;;;;;;5009103;28;20186;-69
2023/07/21 03:48:48;;;;;;;14.00;11.88;;;;;;;;;;5010856;28;20182;-69
2023/07/21 03:51:13;;;;;;;14.20;12.23;;;;;;;;;;5017356;28;21385;-69
2023/07/21 03:53:39;;;;;;;13.80;12.45;;;;;;;;;;5019577;28;20199;-69
2023/07/21 03:56:05;;;;;;;13.93;12.00;;;;;;;;;;5016465;28;20198;-69
2023/07/21 03:58:31;;;;;;;14.27;12.77;;;;;;;;;;5011620;28;20191;-69
2023/07/21 04:00:58;;;;;;;14.15;12.65;;;;;;;;;;5004317;28;20186;-69
2023/07/21 04:03:24;;;;;;;13.70;12.40;;;;;;;;;;5004000;28;20274;-69
2023/07/21 04:05:53;;;;;;;18.25;12.18;;;;;;;;;;5007174;28;20186;-69
2023/07/21 04:08:19;;;;;;;16.02;13.57;;;;;;;;;;5002123;28;20607;-69
2023/07/21 04:10:44;;;;;;;17.17;12.30;;;;;;;;;;5010721;28;20258;-69
2023/07/21 04:13:10;;;;;;;13.65;12.23;;;;;;;;;;5011256;28;20188;-69
2023/07/21 04:15:36;;;;;;;13.95;12.55;;;;;;;;;;5003374;28;20530;-69
2023/07/21 04:18:02;;;;;;;18.85;13.68;;;;;;;;;;5011988;28;20257;-69
2023/07/21 04:20:30;;;;;;;15.93;12.63;;;;;;;;;;4998859;28;20179;-69
2023/07/21 04:22:55;;;;;;;13.50;11.90;;;;;;;;;;5020553;28;20625;-69
2023/07/21 04:25:21;;;;;;;14.23;12.80;;;;;;;;;;5000096;28;20231;-69
2023/07/21 04:27:48;;;;;;;15.05;12.32;;;;;;;;;;5002005;28;20227;-69
2023/07/21 04:30:13;;;;;;;14.45;13.05;;;;;;;;;;5008778;28;20192;-69
2023/07/21 04:32:39;;;;;;;13.05;11.68;;;;;;;;;;5012582;28;20207;-69
2023/07/21 04:35:09;;;;;;;14.02;12.63;;;;;;;;;;5011845;28;20638;-69
2023/07/21 04:37:35;;;;;;;14.23;12.82;;;;;;;;;;5008195;28;20642;-69
2023/07/21 04:40:00;;;;;;;15.85;13.07;;;;;;;;;;5009872;28;20200;-69
2023/07/21 04:42:26;;;;;;;15.43;12.90;;;;;;;;;;5023877;28;20190;-69
2023/07/21 04:44:52;;;;;;;12.88;11.57;;;;;;;;;;5019008;28;21132;-68
2023/07/21 04:47:18;;;;;;;16.42;11.60;;;;;;;;;;5009605;28;20256;-68
2023/07/21 04:49:43;;;;;;;17.77;13.93;;;;;;;;;;5013288;28;20198;-70
2023/07/21 04:52:09;;;;;;;14.85;12.93;;;;;;;;;;5015083;28;20222;-68
2023/07/21 04:54:35;;;;;;;14.45;13.05;;;;;;;;;;5010930;28;20197;-70
2023/07/21 04:57:00;;;;;;;15.90;12.65;;;;;;;;;;5011473;28;20647;-68
2023/07/21 04:59:26;;;;;;;15.25;13.63;;;;;;;;;;5007047;28;20234;-69
2023/07/21 05:01:52;;;;;;;15.18;13.65;;;;;;;;;;5012417;28;20647;-69
2023/07/21 05:04:20;;;;;;;15.48;13.60;;;;;;;;;;5000541;28;20286;-68
2023/07/21 05:06:49;;;;;;;17.25;14.23;;;;;;;;;;5000221;28;20195;-69
2023/07/21 05:09:14;;;;;;;16.52;14.57;;;;;;;;;;5009396;28;20175;-69
2023/07/21 05:11:40;;;;;;;17.02;15.32;;;;;;;;;;5008120;28;20225;-68
2023/07/21 05:14:06;;;;;;;16.40;14.70;;;;;;;;;;5009066;28;20818;-69
2023/07/21 05:16:37;;;;;;;17.00;14.98;;;;;;;;;;5001117;28;20337;-68
2023/07/21 05:19:03;;;;;;;15.93;14.13;;;;;;;;;;5011901;28;20678;-69
2023/07/21 05:21:29;;;;;;;15.38;13.77;;;;;;;;;;5012295;28;20183;-68
2023/07/21 05:23:54;;;;;;;15.23;13.52;;;;;;;;;;5011190;28;20205;-70
2023/07/21 05:26:21;;;;;;;15.07;12.82;;;;;;;;;;5012209;28;20646;-70
2023/07/21 05:28:48;;;;;;;14.10;12.80;;;;;;;;;;5014610;28;20201;-70
2023/07/21 05:31:14;;;;;;;15.82;13.25;;;;;;;;;;5009245;28;20214;-70
2023/07/21 05:33:39;;;;;;;12.00;10.90;;;;;;;;;;5008956;28;20563;-70
2023/07/21 05:36:07;;;;;;;12.60;10.43;;;;;;;;;;5012418;28;20748;-70
2023/07/21 05:38:33;;;;;;;12.35;10.95;;;;;;;;;;5013645;28;20190;-69
2023/07/21 05:40:58;;;;;;;11.93;10.77;;;;;;;;;;5012338;28;20183;-69
2023/07/21 05:43:24;;;;;;;21.40;9.52;;;;;;;;;;4981066;28;20266;-70
2023/07/21 05:45:50;;;;;;;9.65;8.48;;;;;;;;;;5010512;28;20209;-70
2023/07/21 05:48:15;;;;;;;10.20;8.55;;;;;;;;;;5007053;28;20225;-70
2023/07/21 05:50:41;;;;;;;9.82;8.20;;;;;;;;;;5015317;28;20186;-70
2023/07/21 05:53:06;;;;;;;12.25;8.38;;;;;;;;;;5006792;28;20219;-70
2023/07/21 05:55:31;;;;;;;8.30;7.50;;;;;;;;;;5004304;28;20191;-70
2023/07/21 05:57:57;;;;;;;10.93;8.02;;;;;;;;;;5009364;28;20567;-70
2023/07/21 06:00:22;;;;;;;9.85;8.10;;;;;;;;;;5007437;28;20222;-70
2023/07/21 06:02:47;;;;;;;11.38;8.30;;;;;;;;;;5010271;28;20178;-70
2023/07/21 06:05:13;;;;;;;9.10;8.20;;;;;;;;;;4994147;28;20199;-68
2023/07/21 06:07:40;;;;;;;9.75;7.85;;;;;;;;;;5008429;28;20190;-70
2023/07/21 06:10:06;;;;;;;9.18;7.57;;;;;;;;;;5016694;28;20266;-70
2023/07/21 06:12:31;;;;;;;9.20;8.25;;;;;;;;;;5012204;28;20211;-70
2023/07/21 06:14:56;;;;;;;8.88;7.88;;;;;;;;;;4999792;28;20604;-70
2023/07/21 06:17:22;;;;;;;7.82;6.95;;;;;;;;;;5008810;28;20214;-70
2023/07/21 06:19:47;;;;;;;9.93;6.75;;;;;;;;;;5014178;28;20179;-70
2023/07/21 06:22:13;;;;;;;14.20;7.30;;;;;;;;;;5012730;28;20214;-70
2023/07/21 06:24:39;;;;;;;7.82;7.03;;;;;;;;;;4999778;28;20186;-70
2023/07/21 06:27:05;;;;;;;11.35;6.60;;;;;;;;;;4996092;28;20227;-70
2023/07/21 06:29:31;;;;;;;11.25;7.50;;;;;;;;;;4996803;28;20667;-69
2023/07/21 06:31:57;;;;;;;9.95;6.88;;;;;;;;;;4997993;28;20211;-70
2023/07/21 06:34:22;;;;;;;7.28;6.25;;;;;;;;;;5000007;28;20190;-70
2023/07/21 06:36:48;;;;;;;7.85;6.63;;;;;;;;;;5007649;28;20176;-70
2023/07/21 06:39:13;;;;;;;10.88;6.50;;;;;;;;;;5017286;28;20227;-70
2023/07/21 06:41:38;;;;;;;7.53;6.80;;;;;;;;;;5003283;28;20195;-70
2023/07/21 06:44:04;;;;;;;7.95;6.97;;;;;;;;;;5011050;28;20483;-70
2023/07/21 06:46:29;;;;;;;10.45;7.20;;;;;;;;;;5007268;28;20709;-70
2023/07/21 06:48:55;;;;;;;7.63;6.00;;;;;;;;;;5019033;28;20194;-70
2023/07/21 06:51:20;;;;;;;9.73;6.80;;;;;;;;;;4994644;28;20203;-70
2023/07/21 06:53:47;;;;;;;8.63;6.70;;;;;;;;;;5013704;28;20171;-70
2023/07/21 06:56:13;;;;;;;9.23;6.07;;;;;;;;;;5026529;28;20241;-70
2023/07/21 06:58:39;;;;;;;6.97;5.88;;;;;;;;;;5009875;28;20713;-71
2023/07/21 07:01:04;;;;;;;7.43;5.10;;;;;;;;;;5008753;28;20241;-70
2023/07/21 07:03:29;;;;;;;6.60;5.32;;;;;;;;;;5002118;28;20249;-70
2023/07/21 07:05:55;;;;;;;8.52;6.00;;;;;;;;;;4998220;28;20194;-70
2023/07/21 07:08:21;;;;;;;9.00;5.70;;;;;;;;;;5009374;28;20268;-70
2023/07/21 07:10:47;;;;;;;7.60;6.15;;;;;;;;;;5027584;28;20221;-71
2023/07/21 07:13:13;;;;;;;6.20;5.13;;;;;;;;;;5014278;28;20236;-70
2023/07/21 07:15:39;;;;;;;7.43;5.85;;;;;;;;;;5018425;28;20198;-69
2023/07/21 07:18:05;;;;;;;10.57;6.20;;;;;;;;;;5004885;28;20211;-70
2023/07/21 07:20:30;;;;;;;8.23;5.68;;;;;;;;;;5004795;28;20198;-70
2023/07/21 07:22:56;;;;;;;8.52;5.82;;;;;;;;;;5003080;28;20313;-70
2023/07/21 07:25:24;;;;;;;8.02;5.50;;;;;;;;;;5009466;28;20207;-69
2023/07/21 07:27:50;;;;;;;5.50;4.68;;;;;;;;;;5005494;28;20241;-70
2023/07/21 07:30:16;;;;;;;5.55;4.65;;;;;;;;;;4999792;28;20194;-70
2023/07/21 07:32:43;;;;;;;5.32;4.82;;;;;;;;;;5013810;28;20211;-70
2023/07/21 07:35:10;;;;;;;4.63;3.85;;;;;;;;;;5012605;28;20284;-71
2023/07/21 07:37:35;;;;;;;5.90;3.70;;;;;;;;;;5005600;28;20194;-70
2023/07/21 07:40:01;;;;;;;4.57;4.10;;;;;;;;;;5003504;28;20223;-70
2023/07/21 07:42:26;;;;;;;5.50;4.40;;;;;;;;;;5007647;28;20266;-69
2023/07/21 07:44:58;;;;;;;3.67;3.28;;;;;;;;;;4996056;28;20549;-70
2023/07/21 07:47:24;;;;;;;4.28;3.47;;;;;;;;;;5009872;28;20229;-71
2023/07/21 07:49:49;;;;;;;7.45;4.40;;;;;;;;;;5005605;28;20199;-70
2023/07/21 07:52:17;;;;;;;4.70;4.30;;;;;;;;;;5011449;28;20250;-70
2023/07/21 07:54:43;;;;;;;5.82;4.70;;;;;;;;;;5010170;28;20194;-71
2023/07/21 07:57:08;;;;;;;5.70;4.78;;;;;;;;;;5007647;28;20572;-70
2023/07/21 07:59:33;;;;;;;5.68;5.00;;;;;;;;;;5007484;28;20308;-70
2023/07/21 08:01:59;;;;;;;5.80;4.75;;;;;;;;;;5005241;28;20221;-70
2023/07/21 08:04:25;;;;;;;5.13;4.20;;;;;;;;;;5014372;28;20191;-70
2023/07/21 08:06:50;;;;;;;4.90;3.88;;;;;;;;;;5003521;28;20189;-71
2023/07/21 08:09:16;;;;;;;4.47;3.28;;;;;;;;;;5000858;28;20693;-70
2023/07/21 08:11:41;;;;;;;5.68;3.58;;;;;;;;;;5003794;28;20210;-70
2023/07/21 08:14:07;;;;;;;4.10;3.60;;;;;;;;;;4993759;28;20199;-70
2023/07/21 08:16:33;;;;;;;5.28;3.78;;;;;;;;;;5008574;28;20194;-70
2023/07/21 08:18:59;;;;;;;7.38;3.78;;;;;;;;;;5005982;28;20234;-70
2023/07/21 08:21:27;;;;;;;4.30;3.90;;;;;;;;;;5014959;28;20194;-70
2023/07/21 08:23:54;;;;;;;4.53;3.22;;;;;;;;;;5009273;28;20187;-70
2023/07/21 08:26:20;;;;;;;5.03;3.30;;;;;;;;;;5008221;28;20268;-70
2023/07/21 08:28:46;;;;;;;3.40;3.10;;;;;;;;;;5003189;28;20201;-70
2023/07/21 08:31:11;;;;;;;3.80;3.25;;;;;;;;;;5004839;28;20690;-70
2023/07/21 08:33:37;;;;;;;4.95;3.05;;;;;;;;;;5009962;28;20187;-71
2023/07/21 08:36:03;;;;;;;3.92;2.58;;;;;;;;;;5006049;28;20218;-71
2023/07/21 08:38:29;;;;;;;2.83;2.55;;;;;;;;;;5011285;28;20184;-71
2023/07/21 08:41:17;;;;;;;3.72;3.00;;;;;;;;;;4995068;28;20217;-70
2023/07/21 08:43:43;;;;;;;3.92;2.85;;;;;;;;;;5010127;28;20248;-70
2023/07/21 08:46:09;;;;;;;4.28;2.92;;;;;;;;;;5011062;28;20190;-71
2023/07/21 08:48:35;;;;;;;4.95;2.22;;;;;;;;;;5010558;28;20197;-71
2023/07/21 08:51:01;;;;;;;4.53;2.70;;;;;;;;;;5004791;28;20189;-70
2023/07/21 08:53:26;;;;;;;5.15;2.70;;;;;;;;;;4997976;28;20190;-70
2023/07/21 08:55:56;;;;;;;6.95;3.15;;;;;;;;;;4991376;28;20301;-71
2023/07/21 08:58:23;;;;;;;3.53;3.08;;;;;;;;;;5000167;28;20183;-71
2023/07/21 09:00:50;;;;;;;2.85;2.40;;;;;;;;;;5001963;28;20211;-71
2023/07/21 09:03:30;;;;;;;4.75;3.45;;;;;;;;;;5001212;28;20294;-70
2023/07/21 09:05:57;;;;;;;6.50;2.42;;;;;;;;;;5005023;28;20179;-71
2023/07/21 09:08:33;;;;;;;3.22;2.40;;;;;;;;;;5010425;28;20245;-69
2023/07/21 09:11:00;;;;;;;2.30;2.00;;;;;;;;;;5007107;28;20262;-70
2023/07/21 09:13:26;;;;;;;4.20;2.42;;;;;;;;;;5003261;28;20194;-70
2023/07/21 09:15:54;;;;;;;6.05;3.00;;;;;;;;;;5005498;28;20608;-71
2023/07/21 09:18:27;;;;;;;3.53;1.90;;;;;;;;;;5007394;28;20325;-70
2023/07/21 09:20:53;;;;;;;2.35;1.70;;;;;;;;;;4995584;28;20249;-70
2023/07/21 09:23:20;;;;;;;2.38;1.80;;;;;;;;;;5006309;28;20186;-69
2023/07/21 09:25:53;;;;;;;4.30;1.90;;;;;;;;;;5000983;28;20911;-70
2023/07/21 09:28:36;;;;;;;1.95;1.67;;;;;;;;;;5008590;28;20234;-70
2023/07/21 09:31:01;;;;;;;1.55;1.45;;;;;;;;;;5002951;28;20759;-70
2023/07/21 09:33:27;;;;;;;2.42;1.70;;;;;;;;;;5003782;28;20223;-69
2023/07/21 09:36:06;;;;;;;3.08;1.70;;;;;;;;;;5012198;28;20195;-69
2023/07/21 09:38:32;;;;;;;2.65;1.30;;;;;;;;;;5009488;28;20214;-70
2023/07/21 09:41:10;;;;;;;3.75;1.60;;;;;;;;;;5009493;28;20178;-70
2023/07/21 09:43:36;;;;;;;4.18;1.70;;;;;;;;;;5000198;28;20201;-70
2023/07/21 09:46:07;;;;;;;4.20;1.70;;;;;;;;;;4998425;28;20634;-70
2023/07/21 09:48:33;;;;;;;2.40;1.92;;;;;;;;;;5007084;28;20248;-70
2023/07/21 09:51:03;;;;;;;2.00;1.40;;;;;;;;;;5003075;28;20202;-70
2023/07/21 09:53:36;;;;;;;2.25;1.23;;;;;;;;;;4999947;28;20196;-70
2023/07/21 09:56:03;;;;;;;2.03;1.58;;;;;;;;;;5012026;28;20190;-69
2023/07/21 09:58:30;;;;;;;2.85;1.60;;;;;;;;;;5002013;28;20266;-68
2023/07/21 10:01:04;;;;;;;2.25;1.50;;;;;;;;;;5011648;28;20627;-69
2023/07/21 10:03:31;;;;;;;2.83;1.52;;;;;;;;;;5005556;28;20194;-69
2023/07/21 10:05:58;;;;;;;2.33;1.27;;;;;;;;;;5013104;28;20244;-69
2023/07/21 10:08:27;;;;;;;1.75;1.60;;;;;;;;;;5014152;28;20194;-68
2023/07/21 10:10:57;;;;;;;3.05;1.50;;;;;;;;;;5015881;28;20210;-68
2023/07/21 10:13:24;;;;;;;1.65;1.55;;;;;;;;;;5017413;28;20266;-69
2023/07/21 10:15:50;;;;;;;1.92;1.70;;;;;;;;;;4986612;28;20198;-69
2023/07/21 10:18:17;;;;;;;4.55;1.55;;;;;;;;;;5007239;28;20280;-69
2023/07/21 10:20:43;;;;;;;2.80;1.63;;;;;;;;;;5002082;28;20674;-69
2023/07/21 10:23:10;;;;;;;2.90;1.88;;;;;;;;;;5008225;28;20189;-69
2023/07/21 10:25:48;;;;;;;2.72;1.40;;;;;;;;;;5014102;28;20672;-69
2023/07/21 10:28:14;;;;;;;1.63;1.27;;;;;;;;;;4991229;28;20345;-69
2023/07/21 10:30:39;;;;;;;1.73;1.00;;;;;;;;;;4995106;28;20206;-68
2023/07/21 10:33:20;;;;;;;2.08;1.30;;;;;;;;;;5005870;28;20219;-69
2023/07/21 10:35:46;;;;;;;2.90;1.40;;;;;;;;;;5010171;28;20253;-69
2023/07/21 10:38:15;;;;;;;1.17;1.00;;;;;;;;;;5015245;28;20552;-69
2023/07/21 10:40:41;;;;;;;0.95;0.88;;;;;;;;;;5003231;28;20195;-69
2023/07/21 10:43:07;;;;;;;1.50;0.90;;;;;;;;;;5010275;28;20273;-69
2023/07/21 10:45:32;;;;;;;2.58;1.20;;;;;;;;;;5013468;28;20214;-69
2023/07/21 10:48:11;;;;;;;1.13;1.02;;;;;;;;;;5007627;28;20199;-69
2023/07/21 10:50:38;;;;;;;1.70;1.23;;;;;;;;;;4999269;28;20341;-69
2023/07/21 10:53:05;;;;;;;1.48;1.05;;;;;;;;;;5000802;28;20670;-69
2023/07/21 10:55:30;;;;;;;2.25;1.20;;;;;;;;;;4988123;28;20272;-69
2023/07/21 10:57:56;;;;;;;1.77;1.35;;;;;;;;;;5009547;28;20210;-69
2023/07/21 11:00:22;;;;;;;3.83;1.40;;;;;;;;;;5003962;28;20505;-69
2023/07/21 11:02:53;;;;;;;1.98;1.50;;;;;;;;;;5009939;28;20190;-69
2023/07/21 11:05:19;;;;;;;2.88;1.27;;;;;;;;;;5001292;28;20294;-69
2023/07/21 11:07:44;;;;;;;2.53;1.30;;;;;;;;;;5008843;28;20326;-69
2023/07/21 11:10:09;;;;;;;2.70;1.38;;;;;;;;;;5009618;28;20194;-69
2023/07/21 11:12:36;;;;;;;2.10;1.40;;;;;;;;;;4994896;28;20245;-69
2023/07/21 11:15:03;;;;;;;2.60;1.63;;;;;;;;;;5012063;28;20198;-70
2023/07/21 11:17:32;;;;;;;3.83;1.25;;;;;;;;;;5007116;28;20203;-69
2023/07/21 11:20:10;;;;;;;2.45;1.42;;;;;;;;;;5011614;28;20198;-68
2023/07/21 11:22:36;;;;;;;2.95;1.70;;;;;;;;;;5025184;28;20182;-69
2023/07/21 11:25:10;;;;;;;3.25;1.50;;;;;;;;;;5006127;28;20237;-69
2023/07/21 11:27:41;;;;;;;3.63;1.70;;;;;;;;;;5018174;28;20226;-69
2023/07/21 11:30:08;;;;;;;3.05;1.48;;;;;;;;;;5005706;28;20674;-70
2023/07/21 11:32:34;;;;;;;2.33;1.58;;;;;;;;;;5000452;28;20235;-69
2023/07/21 11:35:03;;;;;;;2.17;1.60;;;;;;;;;;4994593;28;20907;-69
2023/07/21 11:37:36;;;;;;;2.72;1.63;;;;;;;;;;4995205;28;20215;-69
2023/07/21 11:40:14;;;;;;;1.73;1.20;;;;;;;;;;5003711;28;20826;-70
2023/07/21 11:42:48;;;;;;;1.60;1.40;;;;;;;;;;5002775;28;20252;-70
2023/07/21 11:45:35;;;;;;;2.03;1.40;;;;;;;;;;4995237;28;20187;-69
2023/07/21 11:48:12;;;;;;;2.00;1.50;;;;;;;;;;5008666;28;20551;-69
2023/07/21 11:50:39;;;;;;;2.50;1.85;;;;;;;;;;5006431;28;20740;-70
2023/07/21 11:53:05;;;;;;;2.45;1.45;;;;;;;;;;5000189;28;20325;-70
2023/07/21 11:55:31;;;;;;;2.10;1.60;;;;;;;;;;5011834;28;20195;-70
2023/07/21 11:57:56;;;;;;;3.58;1.65;;;;;;;;;;4996371;28;20184;-69
2023/07/21 12:00:24;;;;;;;1.65;1.40;;;;;;;;;;5007950;28;20218;-70
2023/07/21 12:02:51;;;;;;;1.48;1.38;;;;;;;;;;4998049;28;20238;-69
2023/07/21 12:05:18;;;;;;;2.15;1.60;;;;;;;;;;5011988;28;20270;-69
2023/07/21 12:07:43;;;;;;;3.47;1.50;;;;;;;;;;5022957;28;20244;-69
2023/07/21 12:10:10;;;;;;;3.38;1.38;;;;;;;;;;5006638;28;20191;-69
2023/07/21 12:12:37;;;;;;;1.90;1.52;;;;;;;;;;5024385;28;20301;-70
2023/07/21 12:15:04;;;;;;;2.63;1.75;;;;;;;;;;5009956;28;20620;-69
2023/07/21 12:17:29;;;;;;;2.47;1.58;;;;;;;;;;5001867;28;20204;-69
2023/07/21 12:19:55;;;;;;;2.42;1.30;;;;;;;;;;5004873;28;20675;-69
2023/07/21 12:22:25;;;;;;;3.38;1.77;;;;;;;;;;5003090;28;20187;-69
2023/07/21 12:24:50;;;;;;;2.65;2.00;;;;;;;;;;5010417;28;20186;-69
2023/07/21 12:27:15;;;;;;;3.92;1.48;;;;;;;;;;5011604;28;20223;-69
2023/07/21 12:29:41;;;;;;;1.40;1.30;;;;;;;;;;5018439;28;20205;-71
2023/07/21 12:32:07;;;;;;;1.75;1.63;;;;;;;;;;5005224;28;20210;-69
2023/07/21 12:34:33;;;;;;;2.35;1.58;;;;;;;;;;5005111;28;20195;-69
2023/07/21 12:36:58;;;;;;;1.50;1.17;;;;;;;;;;5006162;28;20534;-70
2023/07/21 12:39:24;;;;;;;5.80;1.70;;;;;;;;;;5016059;28;20193;-69
2023/07/21 12:41:49;;;;;;;3.25;1.60;;;;;;;;;;5008417;28;20179;-69
2023/07/21 12:44:14;;;;;;;4.03;1.50;;;;;;;;;;5008882;28;20195;-69
2023/07/21 12:46:40;;;;;;;1.85;1.40;;;;;;;;;;5001987;28;20198;-69
2023/07/21 12:49:06;;;;;;;3.40;1.45;;;;;;;;;;5004363;28;20191;-69
2023/07/21 12:51:31;;;;;;;1.70;1.60;;;;;;;;;;5003011;28;20214;-69
2023/07/21 12:53:56;;;;;;;3.22;1.52;;;;;;;;;;5015390;28;20620;-69
2023/07/21 12:56:22;;;;;;;2.13;1.48;;;;;;;;;;5005199;28;20187;-69
2023/07/21 12:58:47;;;;;;;2.75;1.80;;;;;;;;;;5002546;28;20225;-69
2023/07/21 13:01:12;;;;;;;1.80;1.63;;;;;;;;;;4998946;28;20199;-69
2023/07/21 13:03:38;;;;;;;3.72;1.58;;;;;;;;;;5007707;28;20199;-69
2023/07/21 13:06:03;;;;;;;1.73;1.60;;;;;;;;;;4998814;28;20714;-70
2023/07/21 13:08:29;;;;;;;1.90;1.23;;;;;;;;;;5011246;28;20221;-70
2023/07/21 13:10:54;;;;;;;1.67;1.40;;;;;;;;;;5000956;28;20591;-69
2023/07/21 13:13:19;;;;;;;2.22;1.30;;;;;;;;;;5004649;28;20928;-68
2023/07/21 13:15:45;;;;;;;3.15;1.85;;;;;;;;;;4998822;28;20199;-69
2023/07/21 13:18:10;;;;;;;2.38;1.42;;;;;;;;;;5003326;28;20208;-69
2023/07/21 13:20:35;;;;;;;1.85;1.60;;;;;;;;;;5012620;28;20630;-68
2023/07/21 13:23:01;;;;;;;2.70;1.60;;;;;;;;;;5006115;28;20180;-69
2023/07/21 13:25:26;;;;;;;1.73;1.48;;;;;;;;;;5009163;28;20214;-68
2023/07/21 13:27:52;;;;;;;3.30;1.50;;;;;;;;;;5003439;28;20640;-69
2023/07/21 13:30:17;;;;;;;2.53;1.48;;;;;;;;;;4996892;28;20648;-69
2023/07/21 13:32:42;;;;;;;1.88;1.20;;;;;;;;;;4994277;28;20246;-69
2023/07/21 13:35:08;;;;;;;1.50;1.40;;;;;;;;;;5005561;28;20245;-69
2023/07/21 13:37:35;;;;;;;2.95;1.23;;;;;;;;;;5011343;28;20827;-69
2023/07/21 13:40:01;;;;;;;1.92;1.42;;;;;;;;;;4998028;28;20313;-69
2023/07/21 13:42:26;;;;;;;2.53;1.42;;;;;;;;;;5007586;28;20184;-69
2023/07/21 13:44:52;;;;;;;2.45;1.30;;;;;;;;;;4984907;28;20198;-69
2023/07/21 13:47:17;;;;;;;1.40;1.20;;;;;;;;;;5015962;28;20199;-68
2023/07/21 13:49:43;;;;;;;2.22;1.23;;;;;;;;;;5001305;28;20238;-69
2023/07/21 13:52:08;;;;;;;2.25;1.60;;;;;;;;;;5011221;28;20236;-68
2023/07/21 13:54:33;;;;;;;3.05;2.28;;;;;;;;;;5006248;28;20269;-68
2023/07/21 13:56:59;;;;;;;5.30;1.90;;;;;;;;;;5003172;28;20193;-69
2023/07/21 13:59:25;;;;;;;3.08;2.28;;;;;;;;;;4998682;28;20247;-71
2023/07/21 14:01:51;;;;;;;3.80;2.13;;;;;;;;;;4994255;28;20215;-71
2023/07/21 14:04:16;;;;;;;2.58;2.10;;;;;;;;;;5006862;28;20241;-69
2023/07/21 14:06:42;;;;;;;4.65;2.60;;;;;;;;;;5007826;28;20191;-71
2023/07/21 14:09:07;;;;;;;3.20;2.20;;;;;;;;;;5007890;28;20194;-72
2023/07/21 14:11:36;;;;;;;3.78;2.30;;;;;;;;;;5003959;28;20211;-69
2023/07/21 14:14:02;;;;;;;5.15;2.05;;;;;;;;;;5005697;28;20516;-70
2023/07/21 14:16:29;;;;;;;3.78;2.13;;;;;;;;;;5007265;28;20192;-68
2023/07/21 14:18:55;;;;;;;3.55;2.20;;;;;;;;;;4995509;28;20194;-70
2023/07/21 14:21:21;;;;;;;2.70;2.10;;;;;;;;;;5008476;28;20681;-69
2023/07/21 14:23:47;;;;;;;4.40;1.63;;;;;;;;;;5010571;28;20565;-68
2023/07/21 14:26:12;;;;;;;1.95;1.50;;;;;;;;;;5008153;28;20190;-69
2023/07/21 14:28:38;;;;;;;3.03;1.20;;;;;;;;;;5000782;28;20286;-68
2023/07/21 14:31:06;;;;;;;2.63;1.77;;;;;;;;;;5003974;28;20205;-71